createdAt,value
2022-10-28T00:02:17.270Z,100958.50
2022-10-28T00:04:45.709Z,100957.66
2022-10-28T00:07:14.103Z,100962.19
2022-10-28T00:18:03.489Z,100948.78
2022-10-28T00:20:32.929Z,100941.56
2022-10-28T00:23:01.305Z,100944.03
2022-10-28T00:25:29.689Z,100937.66
2022-10-28T00:27:58.077Z,100942.66
2022-10-28T00:30:26.460Z,100936.44
2022-10-28T00:32:55.064Z,100942.66
2022-10-28T00:35:24.388Z,100943.31
2022-10-28T00:37:55.123Z,100929.91
2022-10-28T00:40:27.624Z,100939.59
2022-10-28T00:42:56.050Z,100936.06
2022-10-28T00:45:24.889Z,100940.63
2022-10-28T00:47:58.471Z,100939.59
2022-10-28T00:50:48.521Z,100930.69
2022-10-28T00:53:24.004Z,100930.53
2022-10-28T00:55:52.957Z,100931.66
2022-10-28T00:58:24.244Z,100928.03
2022-10-28T01:00:52.765Z,100922.28
2022-10-28T01:03:21.350Z,100910.53
2022-10-28T01:05:51.693Z,100918.75
2022-10-28T01:08:20.595Z,100913.78
2022-10-28T01:11:14.276Z,100912.69
2022-10-28T01:14:19.860Z,100900.44
2022-10-28T01:17:14.084Z,100911.00
2022-10-28T01:20:05.746Z,100908.50
2022-10-28T01:23:01.001Z,100906.81
2022-10-28T01:26:06.221Z,100904.97
2022-10-28T01:28:58.995Z,100897.41
2022-10-28T01:31:53.912Z,100901.56
2022-10-28T01:34:47.094Z,100904.25
2022-10-28T01:37:36.041Z,100901.34
2022-10-28T01:40:19.302Z,100897.66
2022-10-28T01:42:55.663Z,100901.19
2022-10-28T01:45:34.535Z,100893.97
2022-10-28T01:48:07.630Z,100890.44
2022-10-28T01:51:02.683Z,100881.75
2022-10-28T01:53:37.425Z,100887.28
2022-10-28T01:56:13.488Z,100889.34
2022-10-28T01:58:42.132Z,100890.72
2022-10-28T02:01:11.750Z,100888.19
2022-10-28T02:03:40.079Z,100891.09
2022-10-28T02:06:20.756Z,100892.09
2022-10-28T02:09:04.044Z,100889.63
2022-10-28T02:11:51.229Z,100885.06
2022-10-28T02:14:23.853Z,100890.44
2022-10-28T02:17:05.284Z,100886.56
2022-10-28T02:19:59.492Z,100876.84
2022-10-28T02:22:39.281Z,100867.78
2022-10-28T02:25:42.782Z,100866.09
2022-10-28T02:28:15.619Z,100863.59
2022-10-28T02:31:21.852Z,100869.34
2022-10-28T02:33:55.690Z,100861.66
2022-10-28T02:36:25.936Z,100855.47
2022-10-28T02:38:57.411Z,100857.50
2022-10-28T02:41:42.821Z,100855.84
2022-10-28T02:44:16.662Z,100852.53
2022-10-28T02:46:48.379Z,100859.94
2022-10-28T02:49:16.940Z,100853.06
2022-10-28T02:51:59.893Z,100859.50
2022-10-28T02:54:35.848Z,100850.78
2022-10-28T02:57:26.245Z,100852.00
2022-10-28T03:00:09.973Z,100844.94
2022-10-28T03:02:38.585Z,100865.78
2022-10-28T03:05:08.525Z,100855.25
2022-10-28T03:07:36.945Z,100838.50
2022-10-28T03:10:05.901Z,100840.53
2022-10-28T03:12:34.257Z,100843.41
2022-10-28T03:15:03.292Z,100855.34
2022-10-28T03:17:36.466Z,100864.63
2022-10-28T03:20:04.988Z,100855.91
2022-10-28T03:22:33.562Z,100850.75
2022-10-28T03:25:01.928Z,100854.44
2022-10-28T03:27:30.288Z,100847.41
2022-10-28T03:29:58.675Z,100853.59
2022-10-28T03:32:27.019Z,100842.03
2022-10-28T03:34:55.440Z,100840.38
2022-10-28T03:37:23.882Z,100844.72
2022-10-28T03:39:52.184Z,100839.34
2022-10-28T03:42:20.512Z,100836.66
2022-10-28T03:44:48.895Z,100840.19
2022-10-28T03:47:17.249Z,100839.34
2022-10-28T03:49:45.605Z,100840.38
2022-10-28T03:52:13.972Z,100832.50
2022-10-28T03:54:42.285Z,100835.19
2022-10-28T03:57:10.745Z,100844.28
2022-10-28T03:59:39.101Z,100830.03
2022-10-28T04:02:07.569Z,100836.59
2022-10-28T04:04:35.965Z,100836.78
2022-10-28T04:07:04.282Z,100831.59
2022-10-28T04:09:32.573Z,100836.97
2022-10-28T04:12:01.027Z,100827.44
2022-10-28T04:14:29.191Z,100826.81
2022-10-28T04:16:57.588Z,100826.13
2022-10-28T04:19:25.956Z,100832.34
2022-10-28T04:21:54.291Z,100834.00
2022-10-28T04:24:22.716Z,100845.59
2022-10-28T04:26:51.060Z,100849.94
2022-10-28T04:29:20.357Z,100847.44
2022-10-28T04:31:51.390Z,100843.06
2022-10-28T04:34:20.735Z,100846.78
2022-10-28T04:36:49.130Z,100842.22
2022-10-28T04:39:17.752Z,100837.91
2022-10-28T04:41:46.076Z,100835.41
2022-10-28T04:44:14.483Z,100833.56
2022-10-28T04:46:42.853Z,100826.53
2022-10-28T04:49:11.358Z,100824.88
2022-10-28T04:51:39.752Z,100820.69
2022-10-28T04:54:07.990Z,100821.06
2022-10-28T04:56:35.983Z,100820.59
2022-10-28T04:59:04.335Z,100815.44
2022-10-28T05:01:32.797Z,100812.94
2022-10-28T05:04:01.276Z,100818.66
2022-10-28T05:06:29.623Z,100820.88
2022-10-28T05:08:58.022Z,100824.16
2022-10-28T05:11:26.422Z,100820.78
2022-10-28T05:13:54.819Z,100808.59
2022-10-28T05:16:23.328Z,100805.09
2022-10-28T05:18:51.710Z,100801.78
2022-10-28T05:21:20.083Z,100792.06
2022-10-28T05:23:48.468Z,100795.56
2022-10-28T05:26:16.851Z,100808.97
2022-10-28T05:28:45.206Z,100808.97
2022-10-28T05:31:13.547Z,100818.03
2022-10-28T05:33:41.907Z,100821.06
2022-10-28T05:36:10.450Z,100824.78
2022-10-28T05:38:39.995Z,100821.28
2022-10-28T05:41:08.349Z,100822.94
2022-10-28T05:43:36.648Z,100830.63
2022-10-28T05:46:05.101Z,100837.25
2022-10-28T05:48:33.511Z,100824.31
2022-10-28T05:51:01.886Z,100822.94
2022-10-28T05:53:30.274Z,100825.06
2022-10-28T05:55:58.644Z,100832.53
2022-10-28T05:58:26.984Z,100827.66
2022-10-28T06:00:55.273Z,100818.59
2022-10-28T06:03:28.526Z,100825.25
2022-10-28T06:05:59.553Z,100823.19
2022-10-28T06:08:28.190Z,100817.84
2022-10-28T06:10:55.352Z,100820.53
2022-10-28T06:13:24.346Z,100834.94
2022-10-28T06:15:54.165Z,100833.47
2022-10-28T06:18:22.861Z,100825.63
2022-10-28T06:20:55.894Z,100832.84
2022-10-28T06:23:25.895Z,100829.03
2022-10-28T06:25:59.082Z,100827.56
2022-10-28T06:28:28.189Z,100825.91
2022-10-28T06:31:07.036Z,100827.75
2022-10-28T06:33:35.609Z,100844.69
2022-10-28T06:36:04.330Z,100845.50
2022-10-28T06:38:32.690Z,100843.00
2022-10-28T06:41:01.065Z,100844.84
2022-10-28T06:43:29.440Z,100848.38
2022-10-28T06:46:04.814Z,100848.00
2022-10-28T06:48:34.649Z,100846.63
2022-10-28T06:51:03.236Z,100848.72
2022-10-28T06:53:31.594Z,100837.44
2022-10-28T06:56:00.264Z,100835.03
2022-10-28T06:58:29.345Z,100839.28
2022-10-28T07:00:57.710Z,100836.50
2022-10-28T07:03:26.132Z,100844.44
2022-10-28T07:05:54.649Z,100841.63
2022-10-28T07:08:23.159Z,100840.69
2022-10-28T07:10:59.791Z,100839.72
2022-10-28T07:13:28.802Z,100846.66
2022-10-28T07:15:59.185Z,100848.41
2022-10-28T07:18:30.025Z,100852.84
2022-10-28T07:21:02.451Z,100858.91
2022-10-28T07:23:32.993Z,100861.47
2022-10-28T07:26:01.435Z,100860.31
2022-10-28T07:28:30.219Z,100864.34
2022-10-28T07:31:02.957Z,100860.31
2022-10-28T07:33:31.563Z,100852.94
2022-10-28T07:35:59.956Z,100842.88
2022-10-28T07:38:28.289Z,100855.50
2022-10-28T07:40:56.768Z,100870.28
2022-10-28T07:43:25.111Z,100880.22
2022-10-28T07:45:59.711Z,100875.28
2022-10-28T07:48:28.098Z,100878.78
2022-10-28T07:50:56.473Z,100876.94
2022-10-28T07:53:27.814Z,100878.22
2022-10-28T07:56:02.811Z,100868.91
2022-10-28T07:58:33.014Z,100869.97
2022-10-28T08:01:09.894Z,100870.91
2022-10-28T08:03:39.313Z,100865.94
2022-10-28T08:06:19.272Z,100871.56
2022-10-28T08:08:49.366Z,100854.22
2022-10-28T08:11:20.739Z,100845.94
2022-10-28T08:13:49.176Z,100853.81
2022-10-28T08:16:17.807Z,100855.44
2022-10-28T08:18:46.874Z,100855.28
2022-10-28T08:21:15.663Z,100852.19
2022-10-28T08:23:46.637Z,100853.44
2022-10-28T08:26:17.216Z,100847.66
2022-10-28T08:28:45.663Z,100836.69
2022-10-28T08:31:14.037Z,100834.66
2022-10-28T08:33:45.417Z,100834.03
2022-10-28T08:36:16.835Z,100830.09
2022-10-28T08:38:47.197Z,100833.63
2022-10-28T08:41:20.701Z,100834.84
2022-10-28T08:44:06.550Z,100821.41
2022-10-28T08:47:14.930Z,100816.84
2022-10-28T08:49:47.063Z,100811.06
2022-10-28T08:52:29.553Z,100808.81
2022-10-28T08:55:14.653Z,100807.78
2022-10-28T08:57:55.280Z,100810.91
2022-10-28T09:00:30.641Z,100798.69
2022-10-28T09:03:01.672Z,100797.06
2022-10-28T09:05:30.153Z,100794.97
2022-10-28T09:07:59.483Z,100793.56
2022-10-28T09:11:26.495Z,100784.66
2022-10-28T09:14:07.208Z,100787.53
2022-10-28T09:16:47.958Z,100786.34
2022-10-28T09:19:44.646Z,100789.84
2022-10-28T09:22:28.526Z,100787.13
2022-10-28T09:25:03.471Z,100786.94
2022-10-28T09:28:02.323Z,100790.25
2022-10-28T09:30:33.445Z,100778.88
2022-10-28T09:33:50.867Z,100777.88
2022-10-28T09:36:30.530Z,100770.22
2022-10-28T09:39:01.947Z,100777.50
2022-10-28T09:41:41.134Z,100781.41
2022-10-28T09:44:26.603Z,100772.09
2022-10-28T09:46:59.615Z,100774.38
2022-10-28T09:49:36.864Z,100767.50
2022-10-28T09:52:17.826Z,100773.31
2022-10-28T09:54:53.194Z,100785.97
2022-10-28T09:57:22.191Z,100759.84
2022-10-28T09:59:50.609Z,100770.19
2022-10-28T10:02:35.841Z,100777.03
2022-10-28T10:05:04.670Z,100764.56
2022-10-28T10:07:53.829Z,100766.00
2022-10-28T10:10:30.222Z,100766.41
2022-10-28T10:13:04.169Z,100767.84
2022-10-28T10:15:40.267Z,100761.84
2022-10-28T10:20:52.766Z,100757.69
2022-10-28T10:23:33.513Z,100753.34
2022-10-28T10:26:17.015Z,100750.00
2022-10-28T10:28:50.886Z,100748.53
2022-10-28T10:31:27.840Z,100746.06
2022-10-28T10:33:58.712Z,100756.63
2022-10-28T10:36:31.396Z,100742.53
2022-10-28T10:39:02.454Z,100734.44
2022-10-28T10:41:38.525Z,100737.56
2022-10-28T10:44:25.870Z,100722.81
2022-10-28T10:47:06.059Z,100724.06
2022-10-28T10:49:36.741Z,100724.47
2022-10-28T10:52:22.872Z,100725.09
2022-10-28T10:55:02.888Z,100709.47
2022-10-28T10:57:32.982Z,100713.59
2022-10-28T11:00:01.675Z,100725.59
2022-10-28T11:02:39.702Z,100718.31
2022-10-28T11:05:11.952Z,100714.34
2022-10-28T11:07:48.289Z,100708.69
2022-10-28T11:10:31.343Z,100710.97
2022-10-28T11:13:28.347Z,100697.25
2022-10-28T11:16:16.690Z,100703.41
2022-10-28T11:18:48.292Z,100689.03
2022-10-28T11:21:35.897Z,100694.22
2022-10-28T11:24:29.505Z,100684.88
2022-10-28T11:27:04.096Z,100690.25
2022-10-28T11:29:32.476Z,100679.84
2022-10-28T11:32:19.602Z,100678.56
2022-10-28T11:34:59.541Z,100673.38
2022-10-28T11:38:11.277Z,100683.03
2022-10-28T11:41:12.026Z,100686.75
2022-10-28T11:44:09.199Z,100679.50
2022-10-28T11:46:47.896Z,100682.91
2022-10-28T11:50:02.658Z,100678.41
2022-10-28T11:52:45.508Z,100682.84
2022-10-28T11:55:34.627Z,100675.88
2022-10-28T11:58:03.041Z,100675.56
2022-10-28T12:01:08.003Z,100674.91
2022-10-28T12:03:54.655Z,100676.97
2022-10-28T12:06:41.689Z,100673.72
2022-10-28T12:09:22.010Z,100678.81
2022-10-28T12:12:03.454Z,100668.88
2022-10-28T12:15:01.186Z,100684.91
2022-10-28T12:17:54.597Z,100683.22
2022-10-28T12:20:52.126Z,100690.69
2022-10-28T12:23:23.943Z,100688.06
2022-10-28T12:25:57.989Z,100688.31
2022-10-28T12:28:30.887Z,100688.78
2022-10-28T12:30:59.308Z,100686.19
2022-10-28T12:33:44.663Z,100688.44
2022-10-28T12:36:26.069Z,100688.00
2022-10-28T12:39:12.417Z,100690.81
2022-10-28T12:42:04.455Z,100684.91
2022-10-28T12:44:35.257Z,100690.13
2022-10-28T12:47:25.294Z,100690.00
2022-10-28T12:50:20.692Z,100693.53
2022-10-28T12:52:57.603Z,100691.03
2022-10-28T12:56:02.621Z,100696.47
2022-10-28T13:01:33.702Z,100687.16
2022-10-28T13:04:02.605Z,100688.69
2022-10-28T13:07:17.015Z,100685.41
2022-10-28T13:09:51.650Z,100685.03
2022-10-28T13:12:52.846Z,100676.66
2022-10-28T13:15:30.782Z,100690.31
2022-10-28T13:18:17.566Z,100687.31
2022-10-28T13:21:34.172Z,100673.94
2022-10-28T13:24:20.357Z,100676.19
2022-10-28T13:26:49.407Z,100678.34
2022-10-28T13:29:27.659Z,100675.16
2022-10-28T13:31:56.450Z,100672.09
2022-10-28T13:34:37.496Z,100670.06
2022-10-28T13:37:08.474Z,100667.44
2022-10-28T13:39:46.535Z,100669.56
2022-10-28T13:42:14.812Z,100673.31
2022-10-28T13:44:58.759Z,100669.41
2022-10-28T13:47:36.516Z,100667.53
2022-10-28T13:50:07.552Z,100660.22
2022-10-28T13:52:38.040Z,100666.69
2022-10-28T13:55:28.268Z,100676.72
2022-10-28T13:58:06.094Z,100667.97
2022-10-28T14:00:36.061Z,100660.94
2022-10-28T14:03:28.369Z,100666.78
2022-10-28T14:05:59.570Z,100671.38
2022-10-28T14:08:39.204Z,100665.81
2022-10-28T14:11:14.004Z,100669.81
2022-10-28T14:13:59.969Z,100671.94
2022-10-28T14:16:40.837Z,100675.09
2022-10-28T14:19:23.227Z,100662.59
2022-10-28T14:22:09.594Z,100673.63
2022-10-28T14:24:45.515Z,100667.41
2022-10-28T14:27:18.191Z,100665.31
2022-10-28T14:29:48.040Z,100667.78
2022-10-28T14:32:34.353Z,100656.16
2022-10-28T14:35:14.201Z,100659.28
2022-10-28T14:38:19.183Z,100656.81
2022-10-28T14:44:59.883Z,100645.75
2022-10-28T14:48:01.817Z,100643.41
2022-10-28T14:50:52.443Z,100636.38
2022-10-28T14:53:29.342Z,100644.50
2022-10-28T14:56:05.985Z,100635.75
2022-10-28T14:58:40.730Z,100646.00
2022-10-28T15:01:17.979Z,100640.59
2022-10-28T15:03:51.301Z,100644.34
2022-10-28T15:06:41.732Z,100643.09
2022-10-28T15:09:29.459Z,100641.69
2022-10-28T15:12:26.733Z,100630.72
2022-10-28T15:14:57.504Z,100640.91
2022-10-28T15:17:39.356Z,100635.16
2022-10-28T15:20:37.084Z,100632.28
2022-10-28T15:23:16.739Z,100636.50
2022-10-28T15:25:45.518Z,100636.56
2022-10-28T15:28:15.087Z,100632.44
2022-10-28T15:30:46.787Z,100633.34
2022-10-28T15:33:38.191Z,100637.78
2022-10-28T15:36:29.743Z,100620.19
2022-10-28T15:39:17.941Z,100620.25
2022-10-28T15:41:51.146Z,100617.03
2022-10-28T15:44:28.118Z,100610.03
2022-10-28T15:46:58.382Z,100605.75
2022-10-28T15:49:41.666Z,100610.34
2022-10-28T15:52:21.306Z,100603.97
2022-10-28T15:54:57.880Z,100600.50
2022-10-28T15:57:31.352Z,100598.69
2022-10-28T16:00:20.910Z,100602.41
2022-10-28T16:02:58.617Z,100601.59
2022-10-28T16:05:45.066Z,100596.41
2022-10-28T16:08:18.199Z,100595.34
2022-10-28T16:10:56.176Z,100604.28
2022-10-28T16:13:49.126Z,100599.31
2022-10-28T16:16:27.442Z,100599.78
2022-10-28T16:19:25.514Z,100604.19
2022-10-28T16:21:53.860Z,100596.28
2022-10-28T16:24:22.246Z,100602.97
2022-10-28T16:26:50.755Z,100597.56
2022-10-28T16:29:19.311Z,100597.56
2022-10-28T16:31:51.907Z,100599.03
2022-10-28T16:34:20.576Z,100606.94
2022-10-28T16:36:49.059Z,100607.97
2022-10-28T16:39:17.402Z,100605.50
2022-10-28T16:41:45.872Z,100613.38
2022-10-28T16:44:19.386Z,100603.00
2022-10-28T16:46:47.804Z,100609.69
2022-10-28T16:49:16.778Z,100613.84
2022-10-28T16:51:45.966Z,100622.16
2022-10-28T16:54:14.374Z,100621.16
2022-10-28T16:56:44.861Z,100620.19
2022-10-28T16:59:15.557Z,100616.47
2022-10-28T17:01:44.026Z,100622.72
2022-10-28T17:04:12.492Z,100617.75
2022-10-28T17:06:40.921Z,100620.28
2022-10-28T17:09:09.268Z,100613.22
2022-10-28T17:11:37.588Z,100617.16
2022-10-28T17:14:05.953Z,100608.03
2022-10-28T17:16:36.021Z,100610.69
2022-10-28T17:19:07.624Z,100606.13
2022-10-28T17:21:35.954Z,100601.53
2022-10-28T17:24:05.748Z,100613.78
2022-10-28T17:26:34.117Z,100619.19
2022-10-28T17:29:02.793Z,100627.88
2022-10-28T17:31:31.264Z,100624.34
2022-10-28T17:33:59.659Z,100626.66
2022-10-28T17:36:28.081Z,100625.41
2022-10-28T17:38:56.700Z,100617.16
2022-10-28T17:41:25.325Z,100626.91
2022-10-28T17:43:56.578Z,100628.38
2022-10-28T17:46:25.032Z,100626.97
2022-10-28T17:48:53.628Z,100624.06
2022-10-28T17:51:25.047Z,100630.31
2022-10-28T17:53:57.023Z,100618.28
2022-10-28T17:56:25.527Z,100628.47
2022-10-28T17:58:54.720Z,100621.41
2022-10-28T18:01:23.261Z,100629.09
2022-10-28T18:03:52.273Z,100623.72
2022-10-28T18:06:20.972Z,100630.38
2022-10-28T18:11:20.745Z,100632.66
2022-10-28T18:13:52.907Z,100623.13
2022-10-28T18:16:28.227Z,100628.75
2022-10-28T18:18:57.200Z,100627.69
2022-10-28T18:21:25.938Z,100638.91
2022-10-28T18:24:03.831Z,100630.00
2022-10-28T18:26:37.455Z,100631.06
2022-10-28T18:29:09.929Z,100633.94
2022-10-28T18:31:40.600Z,100631.69
2022-10-28T18:34:08.980Z,100635.63
2022-10-28T18:36:37.464Z,100644.16
2022-10-28T18:39:08.679Z,100642.06
2022-10-28T18:41:41.915Z,100646.47
2022-10-28T18:44:20.124Z,100637.13
2022-10-28T18:46:48.531Z,100649.78
2022-10-28T18:49:17.116Z,100651.22
2022-10-28T18:51:45.461Z,100639.84
2022-10-28T18:54:13.800Z,100650.19
2022-10-28T18:56:46.243Z,100653.31
2022-10-28T18:59:16.897Z,100644.81
2022-10-28T19:01:46.951Z,100648.78
2022-10-28T19:04:15.895Z,100650.88
2022-10-28T19:06:44.238Z,100644.22
2022-10-28T19:09:12.611Z,100647.94
2022-10-28T19:11:40.962Z,100652.50
2022-10-28T19:14:10.341Z,100657.44
2022-10-28T19:16:38.779Z,100664.50
2022-10-28T19:19:07.330Z,100666.78
2022-10-28T19:21:35.972Z,100669.91
2022-10-28T19:24:05.420Z,100668.22
2022-10-28T19:26:34.945Z,100668.66
2022-10-28T19:29:04.603Z,100661.81
2022-10-28T19:31:35.815Z,100658.72
2022-10-28T19:34:04.330Z,100673.00
2022-10-28T19:36:32.678Z,100660.16
2022-10-28T19:39:01.142Z,100657.06
2022-10-28T19:41:31.018Z,100668.22
2022-10-28T19:44:02.001Z,100659.75
2022-10-28T19:46:36.368Z,100673.00
2022-10-28T19:49:06.990Z,100672.56
2022-10-28T19:51:39.564Z,100672.38
2022-10-28T19:54:13.033Z,100679.19
2022-10-28T19:56:42.839Z,100679.00
2022-10-28T19:59:11.195Z,100675.25
2022-10-28T20:01:41.370Z,100679.38
2022-10-28T20:04:10.962Z,100684.34
2022-10-28T20:06:41.575Z,100688.25
2022-10-28T20:09:10.058Z,100685.97
2022-10-28T20:11:40.187Z,100691.34
2022-10-28T20:14:12.013Z,100697.56
2022-10-28T20:16:43.279Z,100712.28
2022-10-28T20:19:11.785Z,100701.31
2022-10-28T20:21:40.318Z,100705.47
2022-10-28T20:24:09.066Z,100709.63
2022-10-28T20:26:39.635Z,100710.44
2022-10-28T20:29:09.784Z,100711.06
2022-10-28T20:31:39.536Z,100710.44
2022-10-28T20:34:08.509Z,100705.25
2022-10-28T20:36:44.016Z,100707.31
2022-10-28T20:39:18.546Z,100705.66
2022-10-28T20:41:48.603Z,100705.66
2022-10-28T20:44:17.810Z,100712.06
2022-10-28T20:46:48.028Z,100706.06
2022-10-28T20:49:16.855Z,100708.75
2022-10-28T20:51:45.257Z,100712.28
2022-10-28T20:54:13.687Z,100717.84
2022-10-28T20:56:43.057Z,100722.22
2022-10-28T20:59:11.678Z,100713.72
2022-10-28T21:01:41.890Z,100732.34
2022-10-28T21:04:12.520Z,100724.88
2022-10-28T21:06:41.214Z,100727.34
2022-10-28T21:09:11.808Z,100737.03
2022-10-28T21:11:40.235Z,100724.19
2022-10-28T21:14:08.737Z,100736.34
2022-10-28T21:16:37.215Z,100731.56
2022-10-28T21:19:05.539Z,100734.66
2022-10-28T21:21:33.909Z,100731.53
2022-10-28T21:24:02.258Z,100741.84
2022-10-28T21:26:30.587Z,100742.47
2022-10-28T21:28:58.913Z,100748.84
2022-10-28T21:31:27.253Z,100740.56
2022-10-28T21:33:55.678Z,100739.13
2022-10-28T21:36:24.393Z,100736.59
2022-10-28T21:38:56.408Z,100732.66
2022-10-28T21:41:26.080Z,100736.56
2022-10-28T21:43:55.210Z,100738.00
2022-10-28T21:46:24.202Z,100743.75
2022-10-28T21:48:53.241Z,100737.94
2022-10-28T21:51:21.589Z,100738.16
2022-10-28T21:53:50.066Z,100728.81
2022-10-28T21:56:21.022Z,100734.59
2022-10-28T21:58:51.711Z,100744.91
2022-10-28T22:01:23.816Z,100740.94
2022-10-28T22:03:54.769Z,100752.72
2022-10-28T22:06:23.631Z,100760.13
2022-10-28T22:08:55.162Z,100762.00
2022-10-28T22:11:25.121Z,100764.25
2022-10-28T22:14:02.348Z,100762.78
2022-10-28T22:16:32.834Z,100765.69
2022-10-28T22:19:04.846Z,100769.78
2022-10-28T22:21:39.069Z,100777.19
2022-10-28T22:24:08.484Z,100769.72
2022-10-28T22:26:36.847Z,100779.00
2022-10-28T22:29:05.744Z,100779.38
2022-10-28T22:31:34.352Z,100786.78
2022-10-28T22:34:03.036Z,100783.66
2022-10-28T22:36:31.656Z,100784.25
2022-10-28T22:39:00.217Z,100787.31
2022-10-28T22:41:31.088Z,100790.53
2022-10-28T22:44:02.333Z,100796.13
2022-10-28T22:46:36.528Z,100788.63
2022-10-28T22:49:05.428Z,100795.78
2022-10-28T22:51:33.972Z,100790.97
2022-10-28T22:54:02.370Z,100789.88
2022-10-28T22:56:30.747Z,100789.19
2022-10-28T22:59:01.674Z,100793.25
2022-10-28T23:01:30.770Z,100796.94
2022-10-28T23:04:00.949Z,100798.16
2022-10-28T23:06:30.310Z,100801.06
2022-10-28T23:08:58.913Z,100794.00
2022-10-28T23:11:27.214Z,100793.56
2022-10-28T23:13:56.454Z,100793.56
2022-10-28T23:16:25.423Z,100818.84
2022-10-28T23:18:54.165Z,100817.94
2022-10-28T23:21:25.358Z,100824.28
2022-10-28T23:24:01.305Z,100811.56
2022-10-28T23:26:30.747Z,100818.56
2022-10-28T23:29:00.617Z,100811.16
2022-10-28T23:31:29.479Z,100806.44
2022-10-28T23:33:59.275Z,100801.28
2022-10-28T23:36:27.845Z,100796.72
2022-10-28T23:38:58.258Z,100797.75
2022-10-28T23:41:26.658Z,100806.34
2022-10-28T23:43:54.995Z,100800.75
2022-10-28T23:46:25.009Z,100811.63
2022-10-28T23:48:53.649Z,100798.59
2022-10-28T23:51:21.975Z,100786.41
2022-10-28T23:53:50.565Z,100786.19
2022-10-28T23:56:18.892Z,100787.25
2022-10-28T23:58:47.371Z,100783.91
